sensor_id;sensor_type;location;lat;lon;timestamp;P1;durP1;ratioP1;P2;durP2;ratioP2
52023;SDS011;38038;45.922;13.604;2022-09-09T10:45:27;25.15;;;23.98;;
52023;SDS011;38038;45.922;13.604;2022-09-09T10:55:51;57.10;;;54.40;;
52023;SDS011;38038;45.922;13.604;2022-09-09T10:58:25;44.13;;;42.03;;
52023;SDS011;38038;45.922;13.604;2022-09-09T11:01:00;26.77;;;25.33;;
52023;SDS011;38038;45.922;13.604;2022-09-09T11:03:34;49.95;;;47.38;;
52023;SDS011;38038;45.922;13.604;2022-09-09T11:06:06;40.58;;;38.67;;
52023;SDS011;38038;45.922;13.604;2022-09-09T11:08:38;78.72;;;74.93;;
52023;SDS011;38038;45.922;13.604;2022-09-09T11:19:24;21.08;;;19.88;;
52023;SDS011;38038;45.922;13.604;2022-09-09T11:22:44;20.25;;;19.02;;
52023;SDS011;38038;45.922;13.604;2022-09-09T11:24:51;15.77;;;14.90;;
52023;SDS011;38038;45.922;13.604;2022-09-09T11:27:24;16.73;;;15.93;;
52023;SDS011;38038;45.922;13.604;2022-09-09T11:32:54;13.10;;;12.40;;
52023;SDS011;38038;45.922;13.604;2022-09-09T11:35:42;17.60;;;16.70;;
52023;SDS011;38038;45.922;13.604;2022-09-09T11:38:26;12.48;;;11.88;;
52023;SDS011;38038;45.922;13.604;2022-09-09T11:40:58;14.73;;;13.82;;
52023;SDS011;38038;45.922;13.604;2022-09-09T11:44:08;12.27;;;11.68;;
52023;SDS011;38038;45.922;13.604;2022-09-09T11:46:20;12.70;;;12.10;;
52023;SDS011;38038;45.922;13.604;2022-09-09T11:49:01;11.73;;;11.13;;
52023;SDS011;38038;45.922;13.604;2022-09-09T11:51:29;13.45;;;12.75;;
52023;SDS011;38038;45.922;13.604;2022-09-09T11:54:25;12.85;;;12.18;;
52023;SDS011;38038;45.922;13.604;2022-09-09T11:56:54;11.70;;;11.10;;
52023;SDS011;38038;45.922;13.604;2022-09-09T12:01:48;16.95;;;16.08;;
52023;SDS011;38038;45.922;13.604;2022-09-09T12:14:42;17.52;;;16.67;;
52023;SDS011;38038;45.922;13.604;2022-09-09T12:19:47;12.40;;;11.70;;
52023;SDS011;38038;45.922;13.604;2022-09-09T12:28:20;16.15;;;15.35;;
52023;SDS011;38038;45.922;13.604;2022-09-09T12:31:10;14.77;;;14.07;;
52023;SDS011;38038;45.922;13.604;2022-09-09T12:33:43;14.35;;;13.65;;
52023;SDS011;38038;45.922;13.604;2022-09-09T12:36:19;13.65;;;12.95;;
52023;SDS011;38038;45.922;13.604;2022-09-09T12:38:52;18.35;;;17.45;;
52023;SDS011;38038;45.922;13.604;2022-09-09T12:41:23;13.20;;;12.60;;
52023;SDS011;38038;45.922;13.604;2022-09-09T12:44:02;13.20;;;12.40;;
52023;SDS011;38038;45.922;13.604;2022-09-09T12:46:40;11.57;;;10.98;;
52023;SDS011;38038;45.922;13.604;2022-09-09T12:49:28;11.02;;;10.52;;
52023;SDS011;38038;45.922;13.604;2022-09-09T12:51:59;12.32;;;11.73;;
52023;SDS011;38038;45.922;13.604;2022-09-09T12:54:28;11.95;;;11.25;;
52023;SDS011;38038;45.922;13.604;2022-09-09T12:56:54;10.52;;;10.02;;
52023;SDS011;38038;45.922;13.604;2022-09-09T13:00:03;13.80;;;13.13;;
52023;SDS011;38038;45.922;13.604;2022-09-09T13:02:23;12.02;;;11.43;;
52023;SDS011;38038;45.922;13.604;2022-09-09T13:04:51;18.60;;;17.70;;
52023;SDS011;38038;45.922;13.604;2022-09-09T13:07:18;11.15;;;10.55;;
52023;SDS011;38038;45.922;13.604;2022-09-09T13:09:45;11.85;;;11.25;;
52023;SDS011;38038;45.922;13.604;2022-09-09T13:12:16;11.43;;;10.73;;
52023;SDS011;38038;45.922;13.604;2022-09-09T13:14:48;10.27;;;9.77;;
52023;SDS011;38038;45.922;13.604;2022-09-09T13:17:18;10.30;;;9.80;;
52023;SDS011;38038;45.922;13.604;2022-09-09T13:19:46;10.32;;;9.82;;
52023;SDS011;38038;45.922;13.604;2022-09-09T13:22:13;12.60;;;12.00;;
52023;SDS011;38038;45.922;13.604;2022-09-09T13:24:43;10.65;;;10.15;;
52023;SDS011;38038;45.922;13.604;2022-09-09T13:27:22;9.95;;;9.45;;
52023;SDS011;38038;45.922;13.604;2022-09-09T13:29:57;11.23;;;10.63;;
52023;SDS011;38038;45.922;13.604;2022-09-09T13:32:23;10.30;;;9.80;;
52023;SDS011;38038;45.922;13.604;2022-09-09T13:34:52;11.02;;;10.48;;
52023;SDS011;38038;45.922;13.604;2022-09-09T13:37:40;9.80;;;9.20;;
52023;SDS011;38038;45.922;13.604;2022-09-09T13:40:06;10.52;;;10.02;;
52023;SDS011;38038;45.922;13.604;2022-09-09T13:42:42;10.18;;;9.68;;
52023;SDS011;38038;45.922;13.604;2022-09-09T13:45:18;11.55;;;10.95;;
52023;SDS011;38038;45.922;13.604;2022-09-09T13:47:45;11.30;;;10.75;;
52023;SDS011;38038;45.922;13.604;2022-09-09T13:50:22;12.43;;;11.48;;
52023;SDS011;38038;45.922;13.604;2022-09-09T13:53:01;12.05;;;11.45;;
52023;SDS011;38038;45.922;13.604;2022-09-09T13:55:28;10.95;;;10.45;;
52023;SDS011;38038;45.922;13.604;2022-09-09T13:57:55;11.00;;;10.40;;
52023;SDS011;38038;45.922;13.604;2022-09-09T14:00:23;13.35;;;12.65;;
52023;SDS011;38038;45.922;13.604;2022-09-09T14:02:49;12.25;;;11.60;;
52023;SDS011;38038;45.922;13.604;2022-09-09T14:05:16;15.68;;;14.77;;
52023;SDS011;38038;45.922;13.604;2022-09-09T14:07:42;13.00;;;12.35;;
52023;SDS011;38038;45.922;13.604;2022-09-09T14:10:09;11.90;;;11.30;;
52023;SDS011;38038;45.922;13.604;2022-09-09T14:12:36;13.13;;;12.50;;
52023;SDS011;38038;45.922;13.604;2022-09-09T14:15:02;10.40;;;9.90;;
52023;SDS011;38038;45.922;13.604;2022-09-09T14:17:29;11.48;;;10.90;;
52023;SDS011;38038;45.922;13.604;2022-09-09T14:19:55;11.57;;;10.98;;
52023;SDS011;38038;45.922;13.604;2022-09-09T14:22:21;13.27;;;12.40;;
52023;SDS011;38038;45.922;13.604;2022-09-09T14:24:47;10.93;;;10.40;;
52023;SDS011;38038;45.922;13.604;2022-09-09T14:27:14;9.45;;;8.95;;
52023;SDS011;38038;45.922;13.604;2022-09-09T14:29:40;12.27;;;11.57;;
52023;SDS011;38038;45.922;13.604;2022-09-09T14:32:05;12.68;;;11.98;;
52023;SDS011;38038;45.922;13.604;2022-09-09T14:34:31;10.25;;;9.65;;
52023;SDS011;38038;45.922;13.604;2022-09-09T14:37:00;11.95;;;11.35;;
52023;SDS011;38038;45.922;13.604;2022-09-09T14:39:26;11.27;;;10.68;;
52023;SDS011;38038;45.922;13.604;2022-09-09T14:41:51;9.52;;;9.02;;
52023;SDS011;38038;45.922;13.604;2022-09-09T14:44:17;9.57;;;9.07;;
52023;SDS011;38038;45.922;13.604;2022-09-09T14:46:43;12.63;;;11.93;;
52023;SDS011;38038;45.922;13.604;2022-09-09T14:49:09;10.55;;;9.90;;
52023;SDS011;38038;45.922;13.604;2022-09-09T14:51:35;11.10;;;10.52;;
52023;SDS011;38038;45.922;13.604;2022-09-09T14:54:01;10.90;;;10.32;;
52023;SDS011;38038;45.922;13.604;2022-09-09T14:56:28;10.48;;;9.88;;
52023;SDS011;38038;45.922;13.604;2022-09-09T14:58:56;10.63;;;10.13;;
52023;SDS011;38038;45.922;13.604;2022-09-09T15:01:24;13.50;;;12.82;;
52023;SDS011;38038;45.922;13.604;2022-09-09T15:03:54;15.45;;;14.48;;
52023;SDS011;38038;45.922;13.604;2022-09-09T15:06:24;18.52;;;17.60;;
52023;SDS011;38038;45.922;13.604;2022-09-09T15:08:52;18.70;;;17.80;;
52023;SDS011;38038;45.922;13.604;2022-09-09T15:11:18;37.10;;;35.33;;
52023;SDS011;38038;45.922;13.604;2022-09-09T15:13:45;27.23;;;25.85;;
52023;SDS011;38038;45.922;13.604;2022-09-09T15:16:13;27.60;;;26.27;;
52023;SDS011;38038;45.922;13.604;2022-09-09T15:18:43;16.55;;;15.75;;
52023;SDS011;38038;45.922;13.604;2022-09-09T15:21:20;51.85;;;49.35;;
52023;SDS011;38038;45.922;13.604;2022-09-09T15:23:47;48.58;;;46.13;;
52023;SDS011;38038;45.922;13.604;2022-09-09T15:26:14;35.90;;;34.13;;
52023;SDS011;38038;45.922;13.604;2022-09-09T15:28:40;17.63;;;16.63;;
52023;SDS011;38038;45.922;13.604;2022-09-09T15:31:24;20.65;;;19.60;;
52023;SDS011;38038;45.922;13.604;2022-09-09T15:33:56;16.50;;;15.60;;
52023;SDS011;38038;45.922;13.604;2022-09-09T15:38:54;14.80;;;14.00;;
52023;SDS011;38038;45.922;13.604;2022-09-09T15:41:21;17.65;;;16.80;;
52023;SDS011;38038;45.922;13.604;2022-09-09T15:43:49;20.17;;;18.83;;
52023;SDS011;38038;45.922;13.604;2022-09-09T15:48:58;19.92;;;18.92;;
52023;SDS011;38038;45.922;13.604;2022-09-09T15:51:31;15.95;;;14.95;;
52023;SDS011;38038;45.922;13.604;2022-09-09T15:53:58;14.45;;;13.75;;
52023;SDS011;38038;45.922;13.604;2022-09-09T15:56:25;18.75;;;17.85;;
52023;SDS011;38038;45.922;13.604;2022-09-09T15:58:53;18.58;;;17.58;;
52023;SDS011;38038;45.922;13.604;2022-09-09T16:01:20;23.38;;;22.20;;
52023;SDS011;38038;45.922;13.604;2022-09-09T16:03:46;24.02;;;22.85;;
52023;SDS011;38038;45.922;13.604;2022-09-09T16:06:15;28.10;;;26.60;;
52023;SDS011;38038;45.922;13.604;2022-09-09T16:08:43;33.30;;;31.63;;
52023;SDS011;38038;45.922;13.604;2022-09-09T16:11:17;27.30;;;26.00;;
52023;SDS011;38038;45.922;13.604;2022-09-09T16:13:45;36.45;;;34.55;;
52023;SDS011;38038;45.922;13.604;2022-09-09T16:16:15;26.83;;;25.55;;
52023;SDS011;38038;45.922;13.604;2022-09-09T16:18:48;22.30;;;21.08;;
52023;SDS011;38038;45.922;13.604;2022-09-09T16:23:47;27.52;;;26.23;;
52023;SDS011;38038;45.922;13.604;2022-09-09T16:26:14;64.10;;;61.03;;
52023;SDS011;38038;45.922;13.604;2022-09-09T16:28:41;23.15;;;22.05;;
52023;SDS011;38038;45.922;13.604;2022-09-09T16:31:08;23.10;;;21.90;;
52023;SDS011;38038;45.922;13.604;2022-09-09T16:33:36;23.55;;;22.42;;
52023;SDS011;38038;45.922;13.604;2022-09-09T16:36:04;20.50;;;19.50;;
52023;SDS011;38038;45.922;13.604;2022-09-09T16:38:31;34.50;;;32.88;;
52023;SDS011;38038;45.922;13.604;2022-09-09T16:40:58;58.17;;;55.42;;
52023;SDS011;38038;45.922;13.604;2022-09-09T16:43:25;59.70;;;56.90;;
52023;SDS011;38038;45.922;13.604;2022-09-09T16:45:51;71.72;;;68.32;;
52023;SDS011;38038;45.922;13.604;2022-09-09T16:48:16;31.38;;;29.67;;
52023;SDS011;38038;45.922;13.604;2022-09-09T16:50:42;18.75;;;17.83;;
52023;SDS011;38038;45.922;13.604;2022-09-09T16:53:07;15.30;;;14.57;;
52023;SDS011;38038;45.922;13.604;2022-09-09T16:55:37;16.77;;;15.88;;
52023;SDS011;38038;45.922;13.604;2022-09-09T16:58:07;17.40;;;16.55;;
52023;SDS011;38038;45.922;13.604;2022-09-09T17:00:35;22.67;;;21.55;;
52023;SDS011;38038;45.922;13.604;2022-09-09T17:03:00;23.27;;;22.10;;
52023;SDS011;38038;45.922;13.604;2022-09-09T17:05:27;24.67;;;23.50;;
52023;SDS011;38038;45.922;13.604;2022-09-09T17:07:53;14.93;;;14.13;;
52023;SDS011;38038;45.922;13.604;2022-09-09T17:10:22;24.77;;;23.45;;
52023;SDS011;38038;45.922;13.604;2022-09-09T17:12:49;19.60;;;18.60;;
52023;SDS011;38038;45.922;13.604;2022-09-09T17:15:14;20.48;;;19.38;;
52023;SDS011;38038;45.922;13.604;2022-09-09T17:17:41;15.32;;;14.52;;
52023;SDS011;38038;45.922;13.604;2022-09-09T17:20:10;23.73;;;22.58;;
52023;SDS011;38038;45.922;13.604;2022-09-09T17:22:36;19.48;;;18.55;;
52023;SDS011;38038;45.922;13.604;2022-09-09T17:25:02;28.10;;;26.70;;
52023;SDS011;38038;45.922;13.604;2022-09-09T17:27:28;24.88;;;23.58;;
52023;SDS011;38038;45.922;13.604;2022-09-09T17:29:56;24.45;;;23.23;;
52023;SDS011;38038;45.922;13.604;2022-09-09T17:32:22;30.65;;;29.15;;
52023;SDS011;38038;45.922;13.604;2022-09-09T17:34:48;26.05;;;24.83;;
52023;SDS011;38038;45.922;13.604;2022-09-09T17:37:13;33.20;;;31.48;;
52023;SDS011;38038;45.922;13.604;2022-09-09T17:39:39;50.83;;;48.35;;
52023;SDS011;38038;45.922;13.604;2022-09-09T17:42:05;54.58;;;51.92;;
52023;SDS011;38038;45.922;13.604;2022-09-09T17:44:32;53.28;;;50.67;;
